Moffit, North Dakota
Current Conditions -  °F | °C
As of 3:52 PM on Sunday 23 Nov 2014 (Local Time) from KBIS Reporting Station
Overcast Overcast  
Wind Chill:   Ceiling: 2300
Heat Index: 23°   Visibility: 10mi
Dew Point: 14°   Wind: 23mph
Humidity: 68%   Direction: 320°NW
Pressure: 29.64"   Gusts: 31mph
Location:  46.68°N, 100.3°W
Report Text: KBIS 232152Z 32020G27KT 10SM OVC023 M05/M10 A2964 RMK AO2 PK WND 31028/2135 UPB43E47SNB25E43 SLP058 P0000 T10501100
Loading
Personal Weather Stations






























Interactive Weather Map New forecast layout! Learn more

10-Day Weather Forecast

Advertisements
Track Severe Weather on mobile